Address 0xb77b4b849d9e5c30e6ddcd28d870af3b8b4303a3 2

 
Txn Hash Method
Block
From
To
Value [Txn Fee]
0x00dcf56fc7d7b20af37887dfb75c1cbaed4d3efb6951049b38337b9dff183e4aStake238449142022-01-17 23:46:4614 hrs ago0xb77b4b849d9e5c30e6ddcd28d870af3b8b4303a3OUT 0x4d70a031fc76da6a9bc0c922101a05fa95c3a2270 MATIC0.003170130
0x9dd04fa985a9e8965bb19b5c39c1f5d33085159495fec1f5eb4d47cfbc8fb8dfSwap Exact ETH F...238448812022-01-17 23:45:4014 hrs 1 min ago0xb77b4b849d9e5c30e6ddcd28d870af3b8b4303a3OUT SushiSwap: SushiV2Router02291.77469218 MATIC0.0077384430
0x7bc659d7db2b39c97171b1f0bbe1a3916260c69e17a036e22104cbdf7a249395Transfer238442642022-01-17 23:24:2614 hrs 22 mins ago0x33a28d7a0c94599edb670fcce5dfa9d4c072314e IN 0xb77b4b849d9e5c30e6ddcd28d870af3b8b4303a3291.7856 MATIC0.0010550
0x63d5c6b1b927da1bb86385d6720f110e52d04f36b680b658566cf61fa3aaa7a8Stake238255142022-01-17 12:06:311 day 1 hr ago0xb77b4b849d9e5c30e6ddcd28d870af3b8b4303a3OUT 0x4d70a031fc76da6a9bc0c922101a05fa95c3a2270 MATIC0.0031697430
0x82d6f5945a28f3e21627488b76ebd5b79024b2405050d8350a9c7db2034729bfSwap Exact ETH F...238254822022-01-17 12:05:271 day 1 hr ago0xb77b4b849d9e5c30e6ddcd28d870af3b8b4303a3OUT SushiSwap: SushiV2Router02160.66609219 MATIC0.0077380830
0xec304f824dd523b2e8242dc179e01e8ec4cc16d6e8cb4e0486dfafdc01760665Transfer238254052022-01-17 12:02:411 day 1 hr ago0x33a28d7a0c94599edb670fcce5dfa9d4c072314e IN 0xb77b4b849d9e5c30e6ddcd28d870af3b8b4303a3160.67700001 MATIC0.0010550
0x89522bb962bad7ef06e4d091c94c2af297c48ca3ee1663fbf26f81a0fe3d78a3Stake238251032022-01-17 11:52:211 day 1 hr ago0xb77b4b849d9e5c30e6ddcd28d870af3b8b4303a3OUT 0x4d70a031fc76da6a9bc0c922101a05fa95c3a2270 MATIC0.0031697430
0xcabd09f2c7b5bf208aa4e6b3f0a945f3d4a2ac953a09ccc8046c3ae5f3d530ccSwap Exact ETH F...238250592022-01-17 11:50:491 day 1 hr ago0xb77b4b849d9e5c30e6ddcd28d870af3b8b4303a3OUT SushiSwap: SushiV2Router02155.077328518492036 MATIC0.0077380830
0x4896fce26a996abd933754e1b533b7378be32bcfccc56ab81c458e6fa03272c2Transfer238163292022-01-17 6:07:561 day 7 hrs ago0x33a28d7a0c94599edb670fcce5dfa9d4c072314e IN 0xb77b4b849d9e5c30e6ddcd28d870af3b8b4303a3155.11949999 MATIC0.0010550
0x1b2f3bbb49bebc5a9e217021c51d0418b9622c8428617ea3db644e4dc5a21015Transfer237677572022-01-16 1:03:312 days 12 hrs ago0xb77b4b849d9e5c30e6ddcd28d870af3b8b4303a3OUT USD Coin0 MATIC0.0014565630
0xdd13f3a8639c17db12d3237bec1b1694cd546500146dbf17cb03be4066dc331cSwap Exact Token...237676842022-01-16 1:01:012 days 12 hrs ago0xb77b4b849d9e5c30e6ddcd28d870af3b8b4303a3OUT SushiSwap: SushiV2Router020 MATIC0.0028868730
0xcc832d82ec6e3f8f3e840c451b38f761d4d34580e104eff73c7d6e978a886370Unstake237675982022-01-16 0:58:012 days 12 hrs ago0xb77b4b849d9e5c30e6ddcd28d870af3b8b4303a3OUT 0x25d28a24ceb6f81015bb0b2007d795acac411b4d0 MATIC0.0026668530
0xe27fad09fc1a3f53b11cc592113c7d02cdba00b42e519556b7092db328d582b7Transfer237305072022-01-15 1:43:343 days 12 hrs ago0xb77b4b849d9e5c30e6ddcd28d870af3b8b4303a3OUT USD Coin0 MATIC0.0019065630
0x80904ab0612d00352f088a001a9e80d69d9d885993f93a94b07795fc41840d68Swap Exact Token...237300992022-01-15 1:29:303 days 12 hrs ago0xb77b4b849d9e5c30e6ddcd28d870af3b8b4303a3OUT SushiSwap: SushiV2Router020 MATIC0.0032036730
0xdcbfb13dca34a321093acf253645bd96947bd28065d972c095b63f060339b234Unstake237300332022-01-15 1:27:143 days 12 hrs ago0xb77b4b849d9e5c30e6ddcd28d870af3b8b4303a3OUT 0x25d28a24ceb6f81015bb0b2007d795acac411b4d0 MATIC0.0026668530
0x3566bda6fda7090d49ec4a9a895a362e65c82c1fc391fa16c57a73b4bcf74f9bSwap Exact Token...237067492022-01-14 11:19:334 days 2 hrs ago0xb77b4b849d9e5c30e6ddcd28d870af3b8b4303a3OUT SushiSwap: SushiV2Router020 MATIC0.013028258122
0xeec19c42e0ffcb8737d453e66c87414a776e674917e16f9ed5f9cc006cdb93d7Unstake237065292022-01-14 11:12:014 days 2 hrs ago0xb77b4b849d9e5c30e6ddcd28d870af3b8b4303a3OUT 0x25d28a24ceb6f81015bb0b2007d795acac411b4d0 MATIC0.00435585549
0x99f592770c9ccccc7154c661382b6ac77a38db50e82a2858ed475cf07e583143Transfer236857052022-01-13 21:44:424 days 16 hrs ago0xb77b4b849d9e5c30e6ddcd28d870af3b8b4303a3OUT0x791f8d2388c3500db6c436ad94d8f0b9f642942e60.84765846 MATIC0.0006330
0x7ed748c46a81fc457ec1b5c0e733e45d930f4eca2ba2854cefeddd636c0e181cSwap Exact Token...236856302022-01-13 21:41:444 days 16 hrs ago0xb77b4b849d9e5c30e6ddcd28d870af3b8b4303a3OUT SushiSwap: SushiV2Router020 MATIC0.0040185330
0xbaf0b966b9b370f947f9e6915a8c61c723647be8c12c712a0b2381432bf6a9f0Swap Exact Token...236855392022-01-13 21:38:384 days 16 hrs ago0xb77b4b849d9e5c30e6ddcd28d870af3b8b4303a3OUT SushiSwap: SushiV2Router020 MATIC0.00491229446
0x6c5139827be76305521e4726f1fbe4615edba5d20d5868e8faad1c5b868c8f39Unstake236854842022-01-13 21:36:064 days 16 hrs ago0xb77b4b849d9e5c30e6ddcd28d870af3b8b4303a3OUT 0x25d28a24ceb6f81015bb0b2007d795acac411b4d0 MATIC0.003555840
0x18236b3755b42f489dc679e4a207e685ae6c6ad7d6c0b2333008bdb4d3eef2d1Swap236524492022-01-13 1:13:565 days 12 hrs ago0xb77b4b849d9e5c30e6ddcd28d870af3b8b4303a3OUT Metamask: Swap Router0 MATIC0.0272856120
0xbe445b453dd08b059fe56188c4dcd437410bdc071055f6d8828d3c755bf16099Approve236523802022-01-13 1:10:245 days 12 hrs ago0xb77b4b849d9e5c30e6ddcd28d870af3b8b4303a3OUT Wrapped BTC: WBTC Token0 MATIC0.006092424117
0x9eaf33884be4271acb9759eed343c12d23213abdcb1258977f8e51156afa0b73Swap Exact Token...236512412022-01-13 0:21:445 days 13 hrs ago0xb77b4b849d9e5c30e6ddcd28d870af3b8b4303a3OUT SushiSwap: SushiV2Router020 MATIC0.0037163130
0xcaf4a6aaecd8ecd359010ff574e0d5e7ef484f8f405c316c8085115e64f864b7Unstake236511532022-01-13 0:18:445 days 13 hrs ago0xb77b4b849d9e5c30e6ddcd28d870af3b8b4303a3OUT 0x25d28a24ceb6f81015bb0b2007d795acac411b4d0 MATIC0.0026664930
[ Download CSV Export 
Latest 9 internal transactions
Parent Txn Hash Block From To Value
0x7ed748c46a81fc457ec1b5c0e733e45d930f4eca2ba2854cefeddd636c0e181c236856302022-01-13 21:41:444 days 16 hrs ago SushiSwap: SushiV2Router020xb77b4b849d9e5c30e6ddcd28d870af3b8b4303a364.910307229492036955 MATIC
0xb70f0f5c62477b6f930be47d0a72a9c64bdfbd224447f5fbcd5f063d25fc120c229131622021-12-24 16:53:5524 days 20 hrs ago 0xc590175e458b83680867afd273527ff58f74c02b0xb77b4b849d9e5c30e6ddcd28d870af3b8b4303a343.569771939612418741 MATIC
0xe9c59aff233e6256c59aaf03c10d011c96d429df62071de569ce7d075c7ef5e4227684152021-12-21 0:09:0528 days 13 hrs ago SushiSwap: SushiV2Router020xb77b4b849d9e5c30e6ddcd28d870af3b8b4303a341.462054192085282557 MATIC
0xc00906fcf9c30f82f2cce679e878d468b35a9fe913f9543550d822df21706e4a227251142021-12-19 21:54:0329 days 15 hrs ago SushiSwap: SushiV2Router020xb77b4b849d9e5c30e6ddcd28d870af3b8b4303a3208.608885778816461405 MATIC
0x155d9570c27cb8f874492c226e31a1e45dd8ea69a903dc64903b6bbe4eb33c8c224867062021-12-13 20:19:3535 days 17 hrs ago SushiSwap: SushiV2Router020xb77b4b849d9e5c30e6ddcd28d870af3b8b4303a32,469.200082700721496401 MATIC
0x8afabf75053a813df6f2e7c0ab88ce538ec0655b474df51987bea66ec430743e220851692021-12-03 10:49:0346 days 2 hrs ago 0xc590175e458b83680867afd273527ff58f74c02b0xb77b4b849d9e5c30e6ddcd28d870af3b8b4303a3135.348347653922972326 MATIC
0x26aa71f2b08fd1a56b90b3bc3ec0c2904312363487e572dcd9699ff84b33a58b212628132021-11-11 23:29:3367 days 14 hrs ago 0x1111111254fb6c44bac0bed2854e76f90643097d0xb77b4b849d9e5c30e6ddcd28d870af3b8b4303a380.495625 MATIC
0xbc2536fed62ec5895c0dde0e07fc1a6a6912a5211860c44b649edb923933f038212627522021-11-11 23:25:2367 days 14 hrs ago 0x1111111254fb6c44bac0bed2854e76f90643097d0xb77b4b849d9e5c30e6ddcd28d870af3b8b4303a3256.211804478123218004 MATIC
0x40c83891add0b459ba4c76c5ec9e248136a0ecd46d715234aefc524b11170ca6203981152021-10-20 1:03:3190 days 12 hrs ago 0x001360eef146417e392bba10114a42634a45a0700xb77b4b849d9e5c30e6ddcd28d870af3b8b4303a30.1 MATIC
[ Download CSV Export 
Loading

Contract Name:
0 MATIC

Compiler Version
0

Optimization Enabled:
0 MATIC

Other Settings:
-NA-
Block Transaction Gas Used Reward
Age Block Fee Address BC Fee Address Voting Power Jailed Incoming
Block Uncle Number Difficulty Gas Used Reward
Loading
Loading
Make sure to use the "Vote Down" button for any spammy posts, and the "Vote Up" for interesting conversations.